Time;durP1;ratioP1;P1;durP2;ratioP2;P2;SDS_P1;SDS_P2;PMS_P1;PMS_P2;Temp;Humidity;BMP_temperature;BMP_pressure;BME280_temperature;BME280_humidity;BME280_pressure;Samples;Min_cycle;Max_cycle;Signal;HPM_P1;HPM_P2
2023/08/15 00:01:47;;;;;;;8.63;2.60;;;17.30;99.90;;;;;;5051403;28;20051;-66
2023/08/15 00:04:12;;;;;;;8.85;2.95;;;17.20;99.90;;;;;;5051537;28;20037;-66
2023/08/15 00:06:38;;;;;;;6.15;2.47;;;17.20;99.90;;;;;;5050932;28;20389;-66
2023/08/15 00:09:04;;;;;;;10.38;3.05;;;17.10;99.90;;;;;;5050784;28;20103;-66
2023/08/15 00:11:32;;;;;;;6.38;2.80;;;17.10;99.90;;;;;;5051309;28;20114;-66
2023/08/15 00:14:00;;;;;;;9.98;2.45;;;17.10;99.90;;;;;;5051067;28;20094;-67
2023/08/15 00:16:26;;;;;;;5.78;2.25;;;17.10;99.90;;;;;;5050858;28;20072;-66
2023/08/15 00:18:51;;;;;;;8.52;3.08;;;17.10;99.90;;;;;;5041712;28;20079;-65
2023/08/15 00:21:17;;;;;;;7.30;3.42;;;17.10;99.90;;;;;;5050709;28;20412;-67
2023/08/15 00:23:43;;;;;;;6.78;3.28;;;17.10;99.90;;;;;;5050924;28;20044;-67
2023/08/15 00:26:08;;;;;;;10.20;4.20;;;17.20;99.90;;;;;;5049607;28;20120;-66
2023/08/15 00:28:34;;;;;;;11.27;4.93;;;17.20;99.90;;;;;;5043865;28;20120;-66
2023/08/15 00:31:00;;;;;;;14.00;4.75;;;17.20;99.90;;;;;;5048902;28;20052;-67
2023/08/15 00:33:25;;;;;;;11.50;4.75;;;17.30;99.90;;;;;;5050783;28;20457;-66
2023/08/15 00:35:51;;;;;;;10.18;4.80;;;17.30;99.90;;;;;;5050724;28;20786;-66
2023/08/15 00:38:16;;;;;;;15.30;5.60;;;17.40;99.90;;;;;;5047098;28;20049;-66
2023/08/15 00:40:42;;;;;;;12.20;5.20;;;17.40;99.90;;;;;;5045317;28;20045;-66
2023/08/15 00:43:10;;;;;;;8.60;4.70;;;17.50;99.90;;;;;;5050339;28;20099;-66
2023/08/15 00:45:39;;;;;;;10.90;5.00;;;17.50;99.90;;;;;;5050499;28;20087;-66
2023/08/15 00:48:06;;;;;;;11.95;5.68;;;17.60;99.90;;;;;;5050403;28;20049;-66
2023/08/15 00:50:33;;;;;;;14.00;5.95;;;17.60;99.90;;;;;;5039489;28;20129;-67
2023/08/15 00:52:59;;;;;;;12.93;5.90;;;17.60;99.90;;;;;;5049967;28;20083;-67
2023/08/15 00:55:26;;;;;;;11.90;5.65;;;17.70;99.90;;;;;;5050125;28;20080;-66
2023/08/15 00:57:52;;;;;;;12.77;5.45;;;17.70;99.90;;;;;;5050126;28;20056;-66
2023/08/15 01:00:17;;;;;;;14.88;5.28;;;17.70;99.90;;;;;;5050398;28;20498;-67
2023/08/15 01:02:43;;;;;;;11.70;5.25;;;17.70;99.90;;;;;;5041978;28;20404;-66
2023/08/15 01:05:09;;;;;;;10.55;4.93;;;17.70;99.90;;;;;;5049979;28;20040;-66
2023/08/15 01:07:34;;;;;;;11.18;5.07;;;17.80;99.90;;;;;;5049237;28;20098;-66
2023/08/15 01:10:00;;;;;;;8.70;4.68;;;17.80;99.90;;;;;;5050280;28;20480;-66
2023/08/15 01:12:47;;;;;;;12.30;5.10;;;17.80;99.90;;;;;;5050002;28;20041;-65
2023/08/15 01:15:20;;;;;;;9.77;5.30;;;17.80;99.90;;;;;;5042632;28;20048;-66
2023/08/15 01:18:01;;;;;;;13.70;5.53;;;17.80;99.90;;;;;;5048312;28;20064;-66
2023/08/15 01:20:30;;;;;;;12.13;4.82;;;17.90;99.90;;;;;;5045107;28;20052;-67
2023/08/15 01:23:00;;;;;;;10.98;5.00;;;17.90;99.90;;;;;;5049231;28;20095;-66
2023/08/15 01:25:26;;;;;;;10.35;5.53;;;17.90;99.90;;;;;;5049913;28;20417;-65
2023/08/15 01:27:52;;;;;;;7.97;5.38;;;17.80;99.90;;;;;;5048629;28;20399;-66
2023/08/15 01:30:22;;;;;;;13.93;5.97;;;17.90;99.90;;;;;;5042024;28;20484;-66
2023/08/15 01:33:16;;;;;;;12.73;6.68;;;17.90;99.90;;;;;;5048066;28;20059;-66
2023/08/15 01:35:46;;;;;;;12.13;6.40;;;17.90;99.90;;;;;;5043672;28;20055;-67
2023/08/15 01:38:25;;;;;;;13.13;5.63;;;17.80;99.90;;;;;;5048985;28;20056;-66
2023/08/15 01:40:54;;;;;;;9.85;5.53;;;17.80;99.90;;;;;;5049858;28;20041;-66
2023/08/15 01:43:22;;;;;;;12.25;5.60;;;17.80;99.90;;;;;;5049336;28;20794;-66
2023/08/15 01:45:48;;;;;;;14.40;6.07;;;17.80;99.90;;;;;;5039601;28;20057;-67
2023/08/15 01:48:15;;;;;;;10.98;5.35;;;17.70;99.90;;;;;;5049865;28;20047;-66
2023/08/15 01:50:41;;;;;;;10.55;5.40;;;17.70;99.90;;;;;;5049340;28;20045;-66
2023/08/15 01:53:06;;;;;;;11.75;5.68;;;17.70;99.90;;;;;;5049268;28;20036;-66
2023/08/15 01:55:32;;;;;;;9.77;5.45;;;17.70;99.90;;;;;;5048352;28;20073;-67
2023/08/15 01:57:57;;;;;;;15.20;5.65;;;17.60;99.90;;;;;;5049421;28;20083;-66
2023/08/15 02:00:23;;;;;;;12.70;5.78;;;17.60;99.90;;;;;;5038734;28;20080;-65
2023/08/15 02:02:49;;;;;;;10.00;5.47;;;17.70;99.90;;;;;;5049286;28;20369;-67
2023/08/15 02:05:14;;;;;;;12.15;6.00;;;17.70;99.90;;;;;;5040586;28;20045;-66
2023/08/15 02:07:40;;;;;;;12.13;5.40;;;17.70;99.90;;;;;;5049428;28;20090;-66
2023/08/15 02:10:06;;;;;;;11.80;5.90;;;17.60;99.90;;;;;;5048750;28;20108;-65
2023/08/15 02:12:31;;;;;;;11.18;6.25;;;17.70;99.90;;;;;;5038836;28;20053;-66
2023/08/15 02:14:57;;;;;;;13.57;5.78;;;17.70;99.90;;;;;;5040697;28;20056;-66
2023/08/15 02:17:23;;;;;;;14.32;5.85;;;17.70;99.90;;;;;;5040392;28;20531;-66
2023/08/15 02:19:49;;;;;;;13.77;5.93;;;17.60;99.90;;;;;;5039295;28;20045;-67
2023/08/15 02:22:15;;;;;;;11.40;5.97;;;17.60;99.90;;;;;;5048069;28;20087;-66
2023/08/15 02:24:41;;;;;;;10.77;6.18;;;17.60;99.90;;;;;;5049017;28;20140;-67
2023/08/15 02:27:06;;;;;;;13.57;6.68;;;17.60;99.90;;;;;;5045620;28;20136;-66
2023/08/15 02:29:32;;;;;;;11.38;6.07;;;17.60;99.90;;;;;;5049018;28;20065;-66
2023/08/15 02:31:57;;;;;;;14.27;6.18;;;17.50;99.90;;;;;;5048851;28;20496;-66
2023/08/15 02:34:23;;;;;;;13.43;6.47;;;17.50;99.90;;;;;;5047822;28;20498;-66
2023/08/15 02:36:49;;;;;;;9.73;6.05;;;17.50;99.90;;;;;;5041121;28;20453;-67
2023/08/15 02:39:16;;;;;;;9.80;5.85;;;17.50;99.90;;;;;;5039569;28;20124;-67
2023/08/15 02:41:42;;;;;;;11.60;6.05;;;17.50;99.90;;;;;;5041912;28;20104;-66
2023/08/15 02:44:08;;;;;;;13.02;6.32;;;17.40;99.90;;;;;;5052243;28;20060;-65
2023/08/15 02:46:34;;;;;;;16.13;7.05;;;17.40;99.90;;;;;;5049075;28;20042;-67
2023/08/15 02:48:59;;;;;;;19.95;9.10;;;17.40;99.90;;;;;;5041191;28;20071;-67
2023/08/15 02:51:25;;;;;;;15.82;9.52;;;17.40;99.90;;;;;;5051538;28;20053;-65
2023/08/15 02:53:51;;;;;;;17.50;8.82;;;17.40;99.90;;;;;;5051401;28;20074;-66
2023/08/15 02:56:17;;;;;;;17.63;9.98;;;17.40;99.90;;;;;;5047293;28;20049;-65
2023/08/15 02:58:43;;;;;;;17.27;9.48;;;17.40;99.90;;;;;;5052410;28;20052;-65
2023/08/15 03:01:09;;;;;;;15.02;10.07;;;17.50;99.90;;;;;;5052209;28;20047;-66
2023/08/15 03:03:34;;;;;;;13.85;9.93;;;17.50;99.90;;;;;;5052380;28;20124;-66
2023/08/15 03:06:01;;;;;;;13.68;9.65;;;17.50;99.90;;;;;;5046258;28;20131;-66
2023/08/15 03:08:27;;;;;;;16.20;9.80;;;17.50;99.90;;;;;;5052387;28;20037;-66
2023/08/15 03:10:53;;;;;;;16.92;10.60;;;17.50;99.90;;;;;;5046622;28;20052;-65
2023/08/15 03:13:19;;;;;;;16.33;10.95;;;17.50;99.90;;;;;;5046979;28;20044;-66
2023/08/15 03:15:55;;;;;;;14.35;10.20;;;17.50;99.90;;;;;;5043303;28;20049;-66
2023/08/15 03:18:21;;;;;;;20.17;11.30;;;17.50;99.90;;;;;;5052110;28;20522;-66
2023/08/15 03:21:09;;;;;;;15.27;9.88;;;17.40;99.90;;;;;;5052157;28;20041;-66
2023/08/15 03:23:37;;;;;;;19.27;11.88;;;17.40;99.90;;;;;;5050726;28;20041;-66
2023/08/15 03:26:04;;;;;;;17.40;10.52;;;17.40;99.90;;;;;;5045537;28;20037;-66
2023/08/15 03:28:30;;;;;;;17.77;11.63;;;17.40;99.90;;;;;;5040449;28;20052;-66
2023/08/15 03:30:56;;;;;;;22.45;11.00;;;17.40;99.90;;;;;;5051975;28;20037;-66
2023/08/15 03:33:23;;;;;;;17.00;11.57;;;17.50;99.90;;;;;;5051766;28;20408;-66
2023/08/15 03:35:51;;;;;;;20.10;11.63;;;17.50;99.90;;;;;;5051290;28;20084;-66
2023/08/15 03:38:19;;;;;;;20.05;11.50;;;17.50;99.90;;;;;;5042089;28;20120;-66
2023/08/15 03:40:46;;;;;;;16.50;11.07;;;17.50;99.90;;;;;;5043788;28;20519;-66
2023/08/15 03:43:12;;;;;;;17.83;11.73;;;17.50;99.90;;;;;;5049666;28;20045;-66
2023/08/15 03:45:39;;;;;;;12.68;10.00;;;17.50;99.90;;;;;;5051584;28;20048;-66
2023/08/15 03:48:05;;;;;;;16.90;11.40;;;17.50;99.90;;;;;;5043396;28;20564;-66
2023/08/15 03:50:32;;;;;;;14.57;9.95;;;17.50;99.90;;;;;;5051608;28;20049;-66
2023/08/15 03:52:58;;;;;;;21.63;10.93;;;17.50;99.90;;;;;;5051498;28;20400;-66
2023/08/15 03:55:23;;;;;;;18.08;10.80;;;17.50;99.90;;;;;;5051195;28;20045;-66
2023/08/15 03:57:49;;;;;;;15.10;10.10;;;17.50;99.90;;;;;;5047084;28;20048;-66
2023/08/15 04:00:19;;;;;;;13.40;10.52;;;17.50;99.90;;;;;;5051791;28;20044;-66
2023/08/15 04:02:45;;;;;;;15.95;10.88;;;17.50;99.90;;;;;;5041430;28;20047;-66
2023/08/15 04:05:11;;;;;;;19.15;11.38;;;17.40;99.90;;;;;;5051317;28;20175;-65
2023/08/15 04:07:37;;;;;;;19.02;11.52;;;17.50;99.90;;;;;;5042037;28;20476;-65
2023/08/15 04:10:04;;;;;;;17.80;9.98;;;17.50;99.90;;;;;;5051097;28;20041;-66
2023/08/15 04:12:29;;;;;;;16.85;10.82;;;17.50;99.90;;;;;;5050129;28;20037;-66
2023/08/15 04:14:55;;;;;;;17.38;10.68;;;17.50;99.90;;;;;;5039605;28;20065;-66
2023/08/15 04:17:21;;;;;;;15.63;11.38;;;17.50;99.90;;;;;;5046098;28;20048;-66
2023/08/15 04:19:46;;;;;;;18.35;11.65;;;17.40;99.90;;;;;;5042569;28;20041;-66
2023/08/15 04:22:12;;;;;;;16.80;11.55;;;17.40;99.90;;;;;;5049890;28;20045;-66
2023/08/15 04:24:38;;;;;;;20.73;11.60;;;17.40;99.90;;;;;;5051264;28;20464;-66
2023/08/15 04:27:06;;;;;;;21.20;12.38;;;17.40;99.90;;;;;;5050761;28;20041;-67
2023/08/15 04:29:32;;;;;;;13.80;9.50;;;17.40;99.90;;;;;;5044688;28;20408;-65
2023/08/15 04:31:58;;;;;;;14.18;11.20;;;17.40;99.90;;;;;;5048661;28;20052;-66
2023/08/15 04:34:24;;;;;;;19.30;12.05;;;17.30;99.90;;;;;;5050707;28;20442;-66
2023/08/15 04:36:50;;;;;;;20.80;13.50;;;17.30;99.90;;;;;;5049352;28;20045;-66
2023/08/15 04:39:17;;;;;;;21.85;13.35;;;17.30;99.90;;;;;;5050289;28;20095;-65
2023/08/15 04:41:43;;;;;;;23.17;14.00;;;17.20;99.90;;;;;;5049644;28;20476;-66
2023/08/15 04:44:10;;;;;;;17.70;12.32;;;17.20;99.90;;;;;;5050100;28;20044;-66
2023/08/15 04:46:36;;;;;;;18.00;12.00;;;17.20;99.90;;;;;;5041974;28;20480;-66
2023/08/15 04:49:02;;;;;;;17.15;10.82;;;17.20;99.90;;;;;;5050535;28;20052;-66
2023/08/15 04:51:28;;;;;;;13.77;9.85;;;17.10;99.90;;;;;;5049830;28;20530;-66
2023/08/15 04:53:53;;;;;;;15.85;9.93;;;17.20;99.90;;;;;;5050510;28;20040;-66
2023/08/15 04:56:21;;;;;;;16.63;9.38;;;17.20;99.90;;;;;;5048982;28;20040;-66
2023/08/15 04:58:47;;;;;;;12.00;9.00;;;17.20;99.90;;;;;;5041325;28;20053;-66
2023/08/15 05:01:12;;;;;;;12.68;9.10;;;17.20;99.90;;;;;;5048433;28;20087;-65
2023/08/15 05:03:38;;;;;;;14.48;8.73;;;17.20;99.90;;;;;;5041625;28;20041;-65
2023/08/15 05:06:03;;;;;;;15.82;9.90;;;17.20;99.90;;;;;;5049933;28;20473;-66
2023/08/15 05:08:29;;;;;;;12.88;8.75;;;17.20;99.90;;;;;;5050425;28;20035;-66
2023/08/15 05:10:55;;;;;;;13.05;8.70;;;17.10;99.90;;;;;;5047526;28;20088;-66
2023/08/15 05:13:21;;;;;;;15.30;9.45;;;17.20;99.90;;;;;;5049963;28;20446;-66
2023/08/15 05:15:46;;;;;;;13.48;8.68;;;17.20;99.90;;;;;;5050090;28;20045;-66
2023/08/15 05:18:15;;;;;;;12.90;8.90;;;17.20;99.90;;;;;;5050040;28;20037;-66
2023/08/15 05:20:41;;;;;;;14.27;8.15;;;17.20;99.90;;;;;;5049983;28;20060;-66
2023/08/15 05:23:07;;;;;;;12.57;8.38;;;17.10;99.90;;;;;;5048064;28;20045;-65
2023/08/15 05:25:33;;;;;;;14.38;8.40;;;17.20;99.90;;;;;;5049972;28;20037;-66
2023/08/15 05:28:04;;;;;;;12.15;7.63;;;17.20;99.90;;;;;;5049622;28;20117;-65
2023/08/15 05:30:31;;;;;;;14.90;8.15;;;17.30;99.90;;;;;;5049630;28;20037;-65
2023/08/15 05:32:58;;;;;;;14.35;8.93;;;17.30;99.90;;;;;;5048251;28;20088;-66
2023/08/15 05:35:23;;;;;;;16.73;8.73;;;17.40;99.90;;;;;;5042562;28;20120;-66
2023/08/15 05:37:49;;;;;;;14.30;8.98;;;17.40;99.90;;;;;;5049852;28;20458;-66
2023/08/15 05:40:15;;;;;;;13.85;8.65;;;17.40;99.90;;;;;;5049170;28;20559;-66
2023/08/15 05:42:41;;;;;;;16.90;8.07;;;17.40;99.90;;;;;;5047802;28;20132;-65
2023/08/15 05:45:07;;;;;;;13.75;8.32;;;17.40;99.90;;;;;;5049230;28;20443;-65
2023/08/15 05:47:33;;;;;;;14.90;8.38;;;17.50;99.90;;;;;;5049416;28;20033;-66
2023/08/15 05:49:58;;;;;;;10.73;7.80;;;17.50;99.90;;;;;;5048092;28;20130;-66
2023/08/15 05:52:25;;;;;;;13.75;8.00;;;17.50;99.90;;;;;;5049333;28;20041;-65
2023/08/15 05:54:51;;;;;;;16.17;8.75;;;17.50;99.90;;;;;;5042829;28;20060;-66
2023/08/15 05:57:16;;;;;;;15.68;8.75;;;17.50;99.90;;;;;;5045331;28;20040;-66
2023/08/15 05:59:42;;;;;;;15.40;7.88;;;17.50;99.90;;;;;;5049239;28;20518;-66
2023/08/15 06:02:07;;;;;;;12.90;8.23;;;17.50;99.90;;;;;;5049189;28;20037;-66
2023/08/15 06:04:33;;;;;;;15.02;7.97;;;17.50;99.90;;;;;;5049464;28;20419;-66
2023/08/15 06:06:59;;;;;;;15.60;8.00;;;17.50;99.90;;;;;;5049553;28;20175;-66
2023/08/15 06:09:24;;;;;;;12.27;7.63;;;17.50;99.90;;;;;;5049428;28;20144;-65
2023/08/15 06:11:50;;;;;;;14.43;7.88;;;17.50;99.90;;;;;;5046219;28;20116;-66
2023/08/15 06:14:19;;;;;;;14.77;8.30;;;17.50;99.90;;;;;;5047524;28;20072;-66
2023/08/15 06:16:44;;;;;;;15.38;7.20;;;17.50;99.90;;;;;;5041321;28;20052;-66
2023/08/15 06:19:10;;;;;;;14.50;8.35;;;17.60;99.90;;;;;;5051891;28;20048;-66
2023/08/15 06:21:35;;;;;;;13.82;8.23;;;17.60;99.90;;;;;;5053236;28;20036;-65
2023/08/15 06:24:01;;;;;;;15.80;8.88;;;17.60;99.90;;;;;;5051579;28;20041;-66
2023/08/15 06:26:27;;;;;;;11.40;7.85;;;17.70;99.90;;;;;;5052974;28;20476;-65
2023/08/15 06:28:52;;;;;;;16.52;7.82;;;17.80;99.90;;;;;;5052718;28;20045;-66
2023/08/15 06:31:18;;;;;;;14.70;7.75;;;17.90;99.90;;;;;;5053054;28;20484;-67
2023/08/15 06:33:44;;;;;;;12.93;7.57;;;18.00;99.90;;;;;;5052655;28;20044;-65
2023/08/15 06:36:09;;;;;;;13.18;7.30;;;18.00;99.90;;;;;;5053097;28;20037;-66
2023/08/15 06:38:35;;;;;;;11.18;7.30;;;18.10;99.90;;;;;;5047023;28;20045;-66
2023/08/15 06:41:02;;;;;;;10.60;6.85;;;18.20;99.90;;;;;;5039097;28;20115;-66
2023/08/15 06:43:28;;;;;;;15.80;7.75;;;18.30;99.90;;;;;;5044783;28;20049;-66
2023/08/15 06:45:54;;;;;;;16.60;7.10;;;18.30;99.90;;;;;;5044307;28;20049;-66
2023/08/15 06:48:20;;;;;;;13.85;6.20;;;18.50;99.90;;;;;;5043883;28;20396;-66
2023/08/15 06:50:45;;;;;;;11.68;6.07;;;18.60;99.90;;;;;;5052802;28;20447;-66
2023/08/15 06:53:11;;;;;;;13.60;6.28;;;18.70;99.90;;;;;;5052764;28;20045;-66
2023/08/15 06:55:37;;;;;;;19.05;5.47;;;18.80;99.90;;;;;;5042362;28;20060;-66
2023/08/15 06:58:03;;;;;;;16.10;5.43;;;18.90;99.90;;;;;;5052645;28;20115;-66
2023/08/15 07:00:29;;;;;;;14.68;5.35;;;19.10;99.90;;;;;;5051111;28;20049;-66
2023/08/15 07:02:55;;;;;;;16.42;4.22;;;19.10;99.90;;;;;;5052345;28;20057;-66
2023/08/15 07:05:21;;;;;;;19.17;5.10;;;19.30;99.90;;;;;;5052623;28;20051;-66
2023/08/15 07:07:46;;;;;;;17.20;5.00;;;19.40;99.90;;;;;;5052048;28;20056;-66
2023/08/15 07:10:12;;;;;;;13.98;5.22;;;19.40;99.90;;;;;;5052151;28;20045;-65
2023/08/15 07:12:38;;;;;;;12.23;3.85;;;19.50;99.90;;;;;;5052149;28;20047;-67
2023/08/15 07:15:04;;;;;;;16.20;4.63;;;19.50;99.90;;;;;;5052163;28;20053;-69
2023/08/15 07:17:30;;;;;;;19.02;4.93;;;19.50;99.90;;;;;;5051756;28;20037;-71
2023/08/15 07:19:56;;;;;;;14.98;4.85;;;19.50;99.90;;;;;;5042891;28;20059;-67
2023/08/15 07:22:21;;;;;;;12.82;4.43;;;19.60;99.90;;;;;;5044635;28;20092;-68
2023/08/15 07:24:47;;;;;;;18.13;5.22;;;19.70;99.90;;;;;;5051676;28;20409;-68
2023/08/15 07:27:13;;;;;;;12.98;4.22;;;19.80;99.90;;;;;;5051651;28;20378;-66
2023/08/15 07:29:38;;;;;;;12.30;3.88;;;19.90;99.90;;;;;;5050647;28;20045;-68
2023/08/15 07:32:06;;;;;;;10.77;3.83;;;20.00;99.90;;;;;;5051346;28;20158;-67
2023/08/15 07:34:32;;;;;;;16.65;3.95;;;20.10;99.90;;;;;;5044759;28;20053;-68
2023/08/15 07:36:57;;;;;;;10.95;3.55;;;20.10;99.90;;;;;;5049356;28;20041;-68
2023/08/15 07:39:23;;;;;;;14.77;4.00;;;20.20;99.90;;;;;;5052006;28;20092;-69
2023/08/15 07:41:49;;;;;;;13.57;3.78;;;20.10;99.90;;;;;;5050390;28;20052;-68
2023/08/15 07:44:14;;;;;;;11.00;3.40;;;20.20;99.90;;;;;;5051273;28;20157;-71
2023/08/15 07:46:40;;;;;;;14.65;3.47;;;20.30;99.90;;;;;;5051157;28;20443;-66
2023/08/15 07:49:06;;;;;;;11.23;3.58;;;20.40;99.90;;;;;;5041641;28;20048;-66
2023/08/15 07:51:31;;;;;;;9.32;3.00;;;20.50;99.90;;;;;;5050096;28;20086;-66
2023/08/15 07:53:57;;;;;;;12.55;3.25;;;20.60;99.90;;;;;;5052368;28;20049;-68
2023/08/15 07:56:23;;;;;;;10.20;3.30;;;20.80;99.90;;;;;;5052122;28;20795;-70
2023/08/15 07:58:48;;;;;;;9.90;2.50;;;21.00;99.90;;;;;;5051796;28;20458;-69
2023/08/15 08:01:14;;;;;;;7.75;2.42;;;21.20;99.90;;;;;;5051879;28;20045;-69
2023/08/15 08:03:42;;;;;;;11.40;2.60;;;21.40;99.90;;;;;;5051581;28;20063;-68
2023/08/15 08:06:08;;;;;;;9.15;2.50;;;21.50;99.90;;;;;;5051990;28;20049;-68
2023/08/15 08:08:34;;;;;;;14.73;2.70;;;21.70;99.90;;;;;;5051841;28;20116;-68
2023/08/15 08:11:00;;;;;;;10.95;2.58;;;21.80;99.90;;;;;;5052029;28;20459;-69
2023/08/15 08:13:25;;;;;;;13.38;2.13;;;21.90;99.90;;;;;;5051921;28;20041;-69
2023/08/15 08:15:51;;;;;;;10.15;2.83;;;21.90;99.90;;;;;;5042892;28;20076;-69
2023/08/15 08:18:17;;;;;;;7.63;2.30;;;22.00;99.90;;;;;;5051191;28;20053;-69
2023/08/15 08:20:42;;;;;;;6.97;1.80;;;21.90;99.90;;;;;;5051494;28;20443;-70
2023/08/15 08:23:08;;;;;;;9.00;2.70;;;21.90;99.90;;;;;;5051638;28;20451;-68
2023/08/15 08:25:34;;;;;;;6.50;2.03;;;21.80;99.90;;;;;;5051311;28;20048;-68
2023/08/15 08:27:59;;;;;;;7.32;1.90;;;21.70;99.90;;;;;;5043066;28;20045;-69
2023/08/15 08:30:25;;;;;;;6.15;1.65;;;21.90;99.90;;;;;;5051412;28;20120;-67
2023/08/15 08:32:51;;;;;;;9.38;1.58;;;22.10;99.90;;;;;;5051008;28;20323;-67
2023/08/15 08:35:17;;;;;;;10.90;1.80;;;22.40;99.90;;;;;;5051421;28;20044;-65
2023/08/15 08:37:49;;;;;;;11.15;2.28;;;22.50;99.90;;;;;;5051329;28;20128;-67
2023/08/15 08:40:17;;;;;;;7.63;1.80;;;22.70;99.90;;;;;;5050402;28;20408;-67
2023/08/15 08:42:44;;;;;;;11.27;2.30;;;22.80;99.90;;;;;;5051363;28;20096;-67
2023/08/15 08:45:10;;;;;;;9.35;1.70;;;22.90;99.90;;;;;;5051010;28;20476;-68
2023/08/15 08:47:41;;;;;;;8.70;2.10;;;22.90;99.90;;;;;;5046241;28;20436;-67
2023/08/15 08:50:09;;;;;;;6.55;1.60;;;22.80;99.90;;;;;;5048214;28;20101;-66
2023/08/15 08:52:42;;;;;;;7.65;1.85;;;22.70;99.90;;;;;;5050825;28;20040;-69
2023/08/15 08:55:11;;;;;;;9.60;1.83;;;22.70;99.90;;;;;;5050724;28;20045;-67
2023/08/15 08:57:37;;;;;;;8.05;1.67;;;22.80;99.90;;;;;;5042763;28;20412;-68
2023/08/15 09:00:07;;;;;;;9.32;2.40;;;22.90;99.90;;;;;;5050757;28;20033;-67
2023/08/15 09:02:34;;;;;;;6.78;1.58;;;23.00;99.90;;;;;;5050861;28;20170;-70
2023/08/15 09:05:01;;;;;;;6.30;1.35;;;23.00;99.90;;;;;;5050276;28;20483;-69
2023/08/15 09:07:26;;;;;;;9.10;1.70;;;23.00;99.90;;;;;;5050341;28;20187;-69
2023/08/15 09:09:52;;;;;;;5.32;1.38;;;23.00;99.90;;;;;;5050975;28;20606;-68
2023/08/15 09:12:34;;;;;;;6.85;1.45;;;23.10;99.90;;;;;;5050972;28;20041;-69
2023/08/15 09:15:00;;;;;;;11.07;1.90;;;22.90;99.90;;;;;;5041386;28;20052;-67
2023/08/15 09:17:26;;;;;;;7.50;1.60;;;23.10;99.90;;;;;;5042504;28;20037;-68
2023/08/15 09:19:53;;;;;;;6.20;1.25;;;23.20;99.90;;;;;;5050579;28;20053;-66
2023/08/15 09:22:23;;;;;;;6.85;1.30;;;23.10;99.90;;;;;;5048685;28;20578;-67
2023/08/15 09:24:50;;;;;;;8.68;2.00;;;23.00;99.90;;;;;;5050520;28;20057;-69
2023/08/15 09:27:17;;;;;;;5.28;1.30;;;23.20;99.90;;;;;;5050339;28;20381;-67
2023/08/15 09:29:43;;;;;;;9.38;1.67;;;23.40;99.90;;;;;;5042254;28;20570;-67
2023/08/15 09:32:09;;;;;;;8.40;1.60;;;23.50;99.90;;;;;;5050155;28;20177;-68
2023/08/15 09:34:35;;;;;;;4.35;1.20;;;23.70;99.90;;;;;;5050409;28;20048;-67
2023/08/15 09:37:01;;;;;;;9.68;2.28;;;24.00;99.90;;;;;;5049894;28;20740;-68
2023/08/15 09:39:28;;;;;;;4.10;1.27;;;23.90;99.90;;;;;;5050383;28;20049;-67
2023/08/15 09:41:53;;;;;;;5.90;1.40;;;23.90;99.90;;;;;;5049194;28;20082;-68
2023/08/15 09:44:34;;;;;;;6.65;1.35;;;24.00;99.90;;;;;;5038491;28;20133;-68
2023/08/15 09:47:04;;;;;;;12.23;1.40;;;24.10;99.90;;;;;;5050131;28;20400;-68
2023/08/15 09:49:30;;;;;;;5.97;1.20;;;24.00;99.90;;;;;;5038374;28;20077;-68
2023/08/15 09:52:02;;;;;;;5.32;1.33;;;23.80;99.90;;;;;;5043568;28;20087;-68
2023/08/15 09:54:31;;;;;;;6.03;1.35;;;23.80;99.90;;;;;;5050058;28;20060;-69
2023/08/15 09:56:57;;;;;;;6.45;1.40;;;24.00;99.90;;;;;;5047250;28;20404;-67
2023/08/15 09:59:23;;;;;;;4.82;1.13;;;23.80;99.90;;;;;;5040636;28;20049;-70
2023/08/15 10:01:52;;;;;;;6.07;1.20;;;23.90;99.90;;;;;;5043170;28;20048;-69
2023/08/15 10:04:22;;;;;;;4.97;1.20;;;24.00;99.90;;;;;;5050195;28;20072;-68
2023/08/15 10:06:51;;;;;;;7.93;1.40;;;24.00;99.90;;;;;;5042131;28;20522;-68
2023/08/15 10:09:17;;;;;;;6.30;1.13;;;24.10;99.90;;;;;;5049647;28;20091;-67
2023/08/15 10:11:45;;;;;;;5.32;1.20;;;24.20;99.90;;;;;;5049515;28;20045;-67
2023/08/15 10:14:17;;;;;;;6.68;1.20;;;24.30;99.90;;;;;;5041901;28;20396;-67
2023/08/15 10:16:43;;;;;;;5.70;1.00;;;24.30;99.90;;;;;;5049823;28;20388;-68
2023/08/15 10:19:15;;;;;;;5.30;1.30;;;24.60;99.90;;;;;;5049900;28;20064;-68
2023/08/15 10:21:49;;;;;;;6.63;1.70;;;24.60;99.90;;;;;;5049812;28;20041;-70
2023/08/15 10:24:14;;;;;;;8.65;1.20;;;24.80;99.90;;;;;;5040533;28;20606;-70
2023/08/15 10:26:40;;;;;;;6.00;1.30;;;24.70;99.90;;;;;;5049867;28;20127;-70
2023/08/15 10:29:06;;;;;;;7.70;1.40;;;24.80;99.90;;;;;;5049568;28;20041;-68
2023/08/15 10:31:36;;;;;;;6.57;1.48;;;24.70;99.90;;;;;;5049818;28;20048;-66
2023/08/15 10:34:08;;;;;;;8.55;1.80;;;24.80;99.90;;;;;;5041334;28;20049;-69
2023/08/15 10:36:35;;;;;;;9.52;1.67;;;24.70;99.90;;;;;;5049804;28;20069;-68
2023/08/15 10:39:07;;;;;;;11.23;1.90;;;24.70;99.90;;;;;;5048486;28;20412;-67
2023/08/15 10:41:36;;;;;;;4.10;1.60;;;24.70;99.90;;;;;;5037797;28;20404;-68
2023/08/15 10:44:05;;;;;;;5.82;1.77;;;24.70;99.90;;;;;;5047000;28;20060;-67
2023/08/15 10:46:33;;;;;;;7.10;1.65;;;24.80;99.90;;;;;;5049950;28;20040;-67
2023/08/15 10:49:07;;;;;;;8.93;1.42;;;25.00;99.90;;;;;;5049626;28;20049;-67
2023/08/15 10:51:38;;;;;;;9.00;1.90;;;25.10;99.90;;;;;;5040272;28;20041;-68
2023/08/15 10:54:06;;;;;;;6.75;1.90;;;25.00;99.90;;;;;;5033137;28;20386;-67
2023/08/15 10:56:36;;;;;;;5.90;1.30;;;25.10;99.90;;;;;;5049047;28;20060;-67
2023/08/15 10:59:13;;;;;;;7.43;1.50;;;25.20;99.90;;;;;;5049348;28;21509;-68
2023/08/15 11:01:42;;;;;;;6.40;1.58;;;25.10;99.90;;;;;;5040858;28;20025;-68
2023/08/15 11:04:13;;;;;;;7.03;1.80;;;25.20;99.90;;;;;;5051884;28;20045;-68
2023/08/15 11:06:47;;;;;;;5.90;1.77;;;25.30;99.90;;;;;;5053183;28;20059;-68
2023/08/15 11:09:14;;;;;;;3.85;1.45;;;25.30;99.90;;;;;;5052662;28;20063;-69
2023/08/15 11:11:40;;;;;;;6.82;1.35;;;25.10;99.90;;;;;;5052642;28;20052;-67
2023/08/15 11:14:16;;;;;;;8.50;1.70;;;25.10;99.90;;;;;;5052927;28;20037;-69
2023/08/15 11:16:41;;;;;;;6.10;1.20;;;25.10;99.90;;;;;;5052487;28;20048;-68
2023/08/15 11:19:07;;;;;;;15.68;4.22;;;25.00;99.90;;;;;;5053130;28;20446;-67
2023/08/15 11:21:34;;;;;;;9.20;3.15;;;25.10;99.90;;;;;;5052342;28;20041;-68
2023/08/15 11:24:00;;;;;;;5.38;1.30;;;25.10;99.90;;;;;;5052907;28;20053;-67
2023/08/15 11:26:26;;;;;;;29.15;6.28;;;25.10;99.90;;;;;;5052427;28;20424;-68
2023/08/15 11:28:51;;;;;;;5.72;1.65;;;25.20;99.90;;;;;;5044057;28;20116;-67
2023/08/15 11:31:17;;;;;;;6.35;1.50;;;25.10;99.90;;;;;;5052465;28;20518;-67
2023/08/15 11:33:44;;;;;;;4.68;1.52;;;24.90;99.90;;;;;;5052602;28;20142;-69
2023/08/15 11:36:10;;;;;;;7.75;1.67;;;25.20;99.90;;;;;;5052244;28;20077;-67
2023/08/15 11:38:37;;;;;;;13.27;1.65;;;25.10;99.90;;;;;;5052318;28;20048;-67
2023/08/15 11:41:04;;;;;;;7.38;1.70;;;24.90;99.90;;;;;;5050832;28;20134;-68
2023/08/15 11:43:31;;;;;;;7.80;1.85;;;24.90;99.90;;;;;;5052345;28;20041;-66
2023/08/15 11:46:00;;;;;;;6.88;1.55;;;24.90;99.90;;;;;;5051060;28;20064;-67
2023/08/15 11:48:26;;;;;;;6.75;1.90;;;24.90;99.90;;;;;;5044026;28;20506;-68
2023/08/15 11:50:52;;;;;;;6.65;1.77;;;25.00;99.90;;;;;;5052335;28;20049;-67
2023/08/15 11:53:18;;;;;;;5.47;1.40;;;25.10;99.90;;;;;;5052291;28;20106;-67
2023/08/15 11:55:45;;;;;;;5.32;1.25;;;25.30;99.90;;;;;;5051820;28;20674;-68
2023/08/15 11:58:28;;;;;;;9.50;2.13;;;25.40;99.90;;;;;;5045583;28;20423;-68
2023/08/15 12:00:56;;;;;;;5.43;1.48;;;25.40;99.90;;;;;;5045760;28;20049;-66
2023/08/15 12:03:24;;;;;;;7.22;1.90;;;25.30;99.90;;;;;;5048411;28;20228;-67
2023/08/15 12:05:56;;;;;;;6.97;1.23;;;25.50;99.90;;;;;;5039528;28;20048;-68
2023/08/15 12:08:27;;;;;;;3.75;1.08;;;25.90;99.90;;;;;;5051950;28;20055;-67
2023/08/15 12:10:55;;;;;;;8.43;1.92;;;26.10;99.90;;;;;;5042546;28;20127;-67
2023/08/15 12:13:31;;;;;;;6.03;1.75;;;26.00;99.90;;;;;;5051496;28;20029;-68
2023/08/15 12:15:56;;;;;;;10.27;1.67;;;25.90;99.90;;;;;;5044165;28;20163;-67
2023/08/15 12:18:22;;;;;;;6.90;1.60;;;26.00;99.90;;;;;;5051672;28;20083;-66
2023/08/15 12:20:48;;;;;;;4.22;1.45;;;25.90;99.90;;;;;;5043149;28;20041;-68
2023/08/15 12:23:13;;;;;;;8.65;1.52;;;25.70;99.90;;;;;;5051804;28;20488;-67
2023/08/15 12:25:39;;;;;;;8.50;1.40;;;25.60;99.90;;;;;;5050261;28;20052;-67
2023/08/15 12:28:05;;;;;;;5.15;1.10;;;25.50;99.90;;;;;;5049831;28;20040;-66
2023/08/15 12:30:31;;;;;;;7.18;1.83;;;25.40;99.90;;;;;;5051115;28;20051;-67
2023/08/15 12:32:57;;;;;;;9.85;1.50;;;25.40;99.90;;;;;;5046686;28;20127;-69
2023/08/15 12:35:23;;;;;;;5.25;1.38;;;25.40;99.90;;;;;;5043072;28;20141;-68
2023/08/15 12:37:49;;;;;;;4.65;1.35;;;25.10;99.90;;;;;;5051343;28;20037;-68
2023/08/15 12:40:14;;;;;;;7.18;1.65;;;25.00;99.90;;;;;;5051086;28;20511;-66